createdAt,value
2022-08-29T00:02:35.495Z,41.05
2022-08-29T00:05:25.242Z,41.09
2022-08-29T00:08:11.718Z,40.81
2022-08-29T00:11:02.482Z,41.02
2022-08-29T00:13:48.994Z,40.97
2022-08-29T00:16:35.446Z,40.88
2022-08-29T00:19:21.838Z,40.96
2022-08-29T00:22:07.955Z,41.07
2022-08-29T00:24:53.993Z,41.02
2022-08-29T00:27:40.599Z,41.15
2022-08-29T00:30:31.338Z,41.08
2022-08-29T00:33:17.930Z,41.32
2022-08-29T00:36:04.480Z,41.42
2022-08-29T00:38:50.474Z,41.31
2022-08-29T00:41:37.771Z,41.31
2022-08-29T00:44:24.078Z,41.46
2022-08-29T00:47:12.292Z,41.53
2022-08-29T00:49:58.680Z,41.62
2022-08-29T00:52:47.073Z,41.52
2022-08-29T00:55:34.883Z,41.52
2022-08-29T00:58:41.111Z,41.79
2022-08-29T01:01:30.594Z,41.68
2022-08-29T01:04:24.038Z,41.78
2022-08-29T01:07:14.634Z,41.69
2022-08-29T01:10:13.338Z,41.78
2022-08-29T01:13:07.688Z,41.84
2022-08-29T01:15:59.525Z,41.75
2022-08-29T01:18:47.961Z,42.00
2022-08-29T01:21:36.867Z,41.87
2022-08-29T01:24:27.085Z,41.84
2022-08-29T01:27:14.364Z,42.18
2022-08-29T01:30:00.186Z,42.08
2022-08-29T01:32:46.275Z,42.13
2022-08-29T01:35:33.694Z,42.08
2022-08-29T01:38:36.678Z,42.04
2022-08-29T01:41:22.850Z,42.15
2022-08-29T01:44:12.109Z,42.12
2022-08-29T01:47:02.707Z,42.36
2022-08-29T01:49:49.304Z,42.36
2022-08-29T01:52:36.134Z,42.41
2022-08-29T01:55:22.189Z,42.35
2022-08-29T01:58:09.171Z,42.42
2022-08-29T02:00:58.553Z,42.51
2022-08-29T02:03:45.486Z,42.53
2022-08-29T02:06:31.405Z,42.43
2022-08-29T02:09:20.770Z,42.51
2022-08-29T02:12:07.276Z,42.58
2022-08-29T02:14:53.148Z,42.57
2022-08-29T02:17:39.286Z,42.41
2022-08-29T02:20:25.109Z,42.64
2022-08-29T02:23:29.833Z,42.57
2022-08-29T02:26:17.328Z,42.56
2022-08-29T02:29:03.666Z,42.67
2022-08-29T02:31:49.724Z,42.83
2022-08-29T02:34:36.703Z,42.68
2022-08-29T02:37:22.534Z,42.70
2022-08-29T02:40:09.143Z,42.84
2022-08-29T02:42:55.257Z,42.81
2022-08-29T02:45:41.914Z,42.84
2022-08-29T02:48:28.114Z,42.89
2022-08-29T02:51:23.246Z,42.94
2022-08-29T02:54:09.774Z,42.84
2022-08-29T02:56:55.604Z,43.06
2022-08-29T02:59:41.570Z,43.00
2022-08-29T03:02:27.936Z,43.07
2022-08-29T03:05:15.451Z,43.14
2022-08-29T03:08:03.112Z,43.01
2022-08-29T03:10:49.341Z,42.98
2022-08-29T03:13:35.737Z,43.11
2022-08-29T03:16:21.600Z,43.09
2022-08-29T03:19:07.478Z,43.09
2022-08-29T03:21:53.250Z,43.18
2022-08-29T03:24:39.374Z,43.02
2022-08-29T03:27:25.493Z,43.18
2022-08-29T03:30:14.078Z,43.22
2022-08-29T03:33:00.104Z,43.25
2022-08-29T03:35:45.975Z,43.21
2022-08-29T03:38:31.722Z,43.25
2022-08-29T03:41:22.673Z,43.39
2022-08-29T03:44:08.883Z,43.30
2022-08-29T03:46:55.053Z,43.40
2022-08-29T03:49:40.961Z,43.43
2022-08-29T03:52:26.955Z,43.49
2022-08-29T03:55:14.325Z,43.44
2022-08-29T03:58:00.229Z,43.36
2022-08-29T04:00:47.047Z,43.39
2022-08-29T04:03:33.237Z,43.52
2022-08-29T04:06:19.851Z,43.60
2022-08-29T04:09:05.723Z,43.54
2022-08-29T04:11:52.681Z,43.53
2022-08-29T04:14:39.661Z,43.53
2022-08-29T04:17:25.828Z,43.65
2022-08-29T04:20:13.071Z,43.68
2022-08-29T04:22:59.842Z,43.85
2022-08-29T04:25:45.723Z,43.77
2022-08-29T04:28:31.808Z,43.73
2022-08-29T04:31:20.380Z,43.75
2022-08-29T04:34:07.315Z,43.90
2022-08-29T04:36:53.502Z,43.89
2022-08-29T04:39:41.813Z,43.99
2022-08-29T04:42:28.082Z,43.99
2022-08-29T04:45:18.126Z,44.14
2022-08-29T04:48:04.337Z,43.98
2022-08-29T04:50:56.464Z,44.15
2022-08-29T04:53:43.150Z,44.13
2022-08-29T04:56:28.820Z,44.21
2022-08-29T04:59:16.646Z,44.17
2022-08-29T05:02:02.443Z,44.30
2022-08-29T05:04:52.546Z,44.44
2022-08-29T05:07:38.536Z,44.52
2022-08-29T05:10:24.626Z,44.52
2022-08-29T05:13:10.645Z,44.60
2022-08-29T05:15:56.512Z,44.63
2022-08-29T05:18:44.430Z,44.65
2022-08-29T05:21:35.497Z,44.73
2022-08-29T05:24:22.364Z,44.54
2022-08-29T05:27:10.288Z,44.49
2022-08-29T05:29:56.324Z,44.63
2022-08-29T05:32:42.877Z,44.76
2022-08-29T05:35:28.768Z,44.65
2022-08-29T05:38:14.947Z,44.71
2022-08-29T05:41:01.802Z,44.66
2022-08-29T05:43:47.674Z,44.76
2022-08-29T05:46:33.756Z,44.68
2022-08-29T05:49:20.152Z,44.79
2022-08-29T05:52:06.783Z,44.74
2022-08-29T05:54:52.741Z,44.83
2022-08-29T05:57:38.698Z,44.98
2022-08-29T06:00:25.097Z,44.83
2022-08-29T06:03:11.967Z,44.93
2022-08-29T06:05:58.134Z,44.92
2022-08-29T06:08:44.171Z,44.92
2022-08-29T06:11:32.479Z,44.79
2022-08-29T06:14:18.374Z,44.68
2022-08-29T06:17:05.640Z,44.76
2022-08-29T06:19:54.733Z,44.78
2022-08-29T06:22:40.883Z,44.76
2022-08-29T06:25:39.636Z,44.68
2022-08-29T06:28:31.344Z,44.87
2022-08-29T06:31:22.929Z,44.82
2022-08-29T06:34:09.858Z,44.88
2022-08-29T06:36:55.479Z,44.93
2022-08-29T06:39:41.320Z,44.86
2022-08-29T06:42:28.658Z,44.84
2022-08-29T06:45:14.617Z,44.87
2022-08-29T06:48:06.914Z,44.86
2022-08-29T06:51:08.671Z,44.96
2022-08-29T06:53:54.556Z,44.81
2022-08-29T06:56:42.376Z,44.59
2022-08-29T06:59:28.348Z,44.71
2022-08-29T07:02:14.439Z,44.63
2022-08-29T07:05:00.408Z,44.90
2022-08-29T07:07:46.450Z,44.90
2022-08-29T07:10:32.547Z,44.59
2022-08-29T07:13:18.651Z,44.42
2022-08-29T07:16:08.558Z,44.54
2022-08-29T07:18:54.581Z,44.54
2022-08-29T07:21:40.525Z,44.53
2022-08-29T07:24:26.772Z,44.46
2022-08-29T07:27:14.048Z,44.52
2022-08-29T07:30:02.599Z,44.51
2022-08-29T07:32:48.928Z,44.43
2022-08-29T07:35:34.923Z,44.39
2022-08-29T07:38:21.561Z,44.52
2022-08-29T07:41:09.681Z,44.50
2022-08-29T07:43:55.629Z,44.54
2022-08-29T07:46:42.299Z,44.24
2022-08-29T07:49:40.593Z,44.11
2022-08-29T07:52:26.888Z,44.46
2022-08-29T07:55:12.870Z,44.40
2022-08-29T07:57:59.040Z,44.35
2022-08-29T08:00:45.388Z,44.04
2022-08-29T08:03:32.963Z,44.15
2022-08-29T08:06:23.579Z,44.06
2022-08-29T08:09:10.252Z,43.77
2022-08-29T08:11:57.708Z,43.83
2022-08-29T08:14:43.713Z,43.83
2022-08-29T08:17:29.952Z,43.76
2022-08-29T08:20:15.804Z,43.54
2022-08-29T08:23:02.544Z,43.75
2022-08-29T08:25:48.392Z,43.70
2022-08-29T08:28:34.349Z,43.75
2022-08-29T08:31:20.665Z,43.64
2022-08-29T08:34:07.414Z,43.46
